Baker Ranch, California
Current Conditions -  °F | °C
As of 8:52 AM on Friday 28 Nov 2014 (Local Time) from KBLU Reporting Station
Clear Clear  
Wind Chill: 52°   Ceiling: Unl
Heat Index: 52°   Visibility: 10mi
Dew Point:   Wind: 13mph
Humidity: 14%   Direction: 160°SSE
Pressure: 30.11"   Gusts: 22mph
Location:  39.0724°N, 120.571°W
Report Text: KBLU 281652Z AUTO 16011G19KT 10SM CLR 11/M16 A3011 RMK AO2 SLP152 T01111156
Loading
Personal Weather Stations






























Interactive Weather Map New forecast layout! Learn more

10-Day Weather Forecast

Advertisements
Track Severe Weather on mobile